sensor_id;sensor_type;location;lat;lon;timestamp;P1;durP1;ratioP1;P2;durP2;ratioP2
74624;SDS011;63131;52.298;8.056;2023-08-12T00:00:50;12.70;;;5.67;;
74624;SDS011;63131;52.298;8.056;2023-08-12T00:03:15;14.60;;;6.70;;
74624;SDS011;63131;52.298;8.056;2023-08-12T00:05:41;11.15;;;5.78;;
74624;SDS011;63131;52.298;8.056;2023-08-12T00:08:07;13.23;;;6.50;;
74624;SDS011;63131;52.298;8.056;2023-08-12T00:10:33;11.25;;;6.20;;
74624;SDS011;63131;52.298;8.056;2023-08-12T00:12:58;11.77;;;7.73;;
74624;SDS011;63131;52.298;8.056;2023-08-12T00:15:24;11.65;;;6.57;;
74624;SDS011;63131;52.298;8.056;2023-08-12T00:17:49;11.80;;;6.90;;
74624;SDS011;63131;52.298;8.056;2023-08-12T00:20:15;12.10;;;7.27;;
74624;SDS011;63131;52.298;8.056;2023-08-12T00:22:41;13.07;;;6.78;;
74624;SDS011;63131;52.298;8.056;2023-08-12T00:25:06;12.20;;;6.80;;
74624;SDS011;63131;52.298;8.056;2023-08-12T00:27:31;12.30;;;6.15;;
74624;SDS011;63131;52.298;8.056;2023-08-12T00:29:57;14.93;;;8.07;;
74624;SDS011;63131;52.298;8.056;2023-08-12T00:32:22;15.77;;;7.03;;
74624;SDS011;63131;52.298;8.056;2023-08-12T00:34:47;12.50;;;7.03;;
74624;SDS011;63131;52.298;8.056;2023-08-12T00:37:12;22.77;;;8.43;;
74624;SDS011;63131;52.298;8.056;2023-08-12T00:39:37;14.73;;;6.90;;
74624;SDS011;63131;52.298;8.056;2023-08-12T00:42:03;15.70;;;7.87;;
74624;SDS011;63131;52.298;8.056;2023-08-12T00:46:01;16.10;;;10.63;;
74624;SDS011;63131;52.298;8.056;2023-08-12T00:48:26;15.00;;;8.83;;
74624;SDS011;63131;52.298;8.056;2023-08-12T00:50:51;14.65;;;8.57;;
74624;SDS011;63131;52.298;8.056;2023-08-12T00:53:17;15.23;;;7.63;;
74624;SDS011;63131;52.298;8.056;2023-08-12T00:55:42;12.77;;;7.75;;
74624;SDS011;63131;52.298;8.056;2023-08-12T00:58:08;12.77;;;7.30;;
74624;SDS011;63131;52.298;8.056;2023-08-12T01:00:33;13.67;;;6.40;;
74624;SDS011;63131;52.298;8.056;2023-08-12T01:02:58;12.32;;;7.05;;
74624;SDS011;63131;52.298;8.056;2023-08-12T01:05:25;13.93;;;7.15;;
74624;SDS011;63131;52.298;8.056;2023-08-12T01:07:50;14.40;;;8.20;;
74624;SDS011;63131;52.298;8.056;2023-08-12T01:10:16;13.57;;;7.00;;
74624;SDS011;63131;52.298;8.056;2023-08-12T01:12:45;13.35;;;7.35;;
74624;SDS011;63131;52.298;8.056;2023-08-12T01:15:13;13.32;;;8.00;;
74624;SDS011;63131;52.298;8.056;2023-08-12T01:17:41;12.13;;;7.18;;
74624;SDS011;63131;52.298;8.056;2023-08-12T01:20:07;11.63;;;6.43;;
74624;SDS011;63131;52.298;8.056;2023-08-12T01:25:04;12.23;;;6.80;;
74624;SDS011;63131;52.298;8.056;2023-08-12T01:27:30;17.65;;;8.00;;
74624;SDS011;63131;52.298;8.056;2023-08-12T01:29:55;14.27;;;6.90;;
74624;SDS011;63131;52.298;8.056;2023-08-12T01:32:23;11.83;;;7.20;;
74624;SDS011;63131;52.298;8.056;2023-08-12T01:34:52;13.88;;;7.20;;
74624;SDS011;63131;52.298;8.056;2023-08-12T01:37:28;11.48;;;6.95;;
74624;SDS011;63131;52.298;8.056;2023-08-12T01:39:54;12.23;;;6.63;;
74624;SDS011;63131;52.298;8.056;2023-08-12T01:42:20;12.88;;;7.13;;
74624;SDS011;63131;52.298;8.056;2023-08-12T01:44:45;13.70;;;7.25;;
74624;SDS011;63131;52.298;8.056;2023-08-12T01:47:11;15.45;;;7.53;;
74624;SDS011;63131;52.298;8.056;2023-08-12T01:49:36;13.70;;;7.75;;
74624;SDS011;63131;52.298;8.056;2023-08-12T01:52:03;12.52;;;7.22;;
74624;SDS011;63131;52.298;8.056;2023-08-12T01:54:29;13.57;;;6.97;;
74624;SDS011;63131;52.298;8.056;2023-08-12T01:57:01;14.98;;;8.05;;
74624;SDS011;63131;52.298;8.056;2023-08-12T01:59:27;12.70;;;6.90;;
74624;SDS011;63131;52.298;8.056;2023-08-12T02:01:52;13.07;;;7.13;;
74624;SDS011;63131;52.298;8.056;2023-08-12T02:04:17;14.00;;;8.47;;
74624;SDS011;63131;52.298;8.056;2023-08-12T02:06:42;17.40;;;8.77;;
74624;SDS011;63131;52.298;8.056;2023-08-12T02:09:07;13.47;;;7.87;;
74624;SDS011;63131;52.298;8.056;2023-08-12T02:11:33;14.80;;;7.43;;
74624;SDS011;63131;52.298;8.056;2023-08-12T02:13:58;15.30;;;8.33;;
74624;SDS011;63131;52.298;8.056;2023-08-12T02:16:23;14.87;;;8.17;;
74624;SDS011;63131;52.298;8.056;2023-08-12T02:18:48;13.03;;;8.00;;
74624;SDS011;63131;52.298;8.056;2023-08-12T02:21:13;16.17;;;8.50;;
74624;SDS011;63131;52.298;8.056;2023-08-12T02:23:39;12.70;;;7.97;;
74624;SDS011;63131;52.298;8.056;2023-08-12T02:26:04;16.75;;;8.80;;
74624;SDS011;63131;52.298;8.056;2023-08-12T02:28:29;14.60;;;9.00;;
74624;SDS011;63131;52.298;8.056;2023-08-12T02:30:54;15.93;;;7.30;;
74624;SDS011;63131;52.298;8.056;2023-08-12T02:33:20;16.00;;;8.60;;
74624;SDS011;63131;52.298;8.056;2023-08-12T02:35:45;14.20;;;8.73;;
74624;SDS011;63131;52.298;8.056;2023-08-12T02:38:10;13.00;;;7.57;;
74624;SDS011;63131;52.298;8.056;2023-08-12T02:40:35;13.43;;;8.02;;
74624;SDS011;63131;52.298;8.056;2023-08-12T02:43:01;13.67;;;8.10;;
74624;SDS011;63131;52.298;8.056;2023-08-12T02:45:26;14.00;;;8.10;;
74624;SDS011;63131;52.298;8.056;2023-08-12T02:47:51;13.53;;;8.50;;
74624;SDS011;63131;52.298;8.056;2023-08-12T02:50:16;16.03;;;9.10;;
74624;SDS011;63131;52.298;8.056;2023-08-12T02:52:42;15.98;;;8.48;;
74624;SDS011;63131;52.298;8.056;2023-08-12T02:55:07;16.10;;;8.43;;
74624;SDS011;63131;52.298;8.056;2023-08-12T02:57:32;14.07;;;8.73;;
74624;SDS011;63131;52.298;8.056;2023-08-12T02:59:57;13.97;;;9.03;;
74624;SDS011;63131;52.298;8.056;2023-08-12T03:02:23;15.80;;;8.87;;
74624;SDS011;63131;52.298;8.056;2023-08-12T03:04:48;17.07;;;10.23;;
74624;SDS011;63131;52.298;8.056;2023-08-12T03:07:13;15.50;;;8.67;;
74624;SDS011;63131;52.298;8.056;2023-08-12T03:09:38;15.83;;;9.73;;
74624;SDS011;63131;52.298;8.056;2023-08-12T03:12:03;18.53;;;9.00;;
74624;SDS011;63131;52.298;8.056;2023-08-12T03:14:29;16.00;;;9.10;;
74624;SDS011;63131;52.298;8.056;2023-08-12T03:16:55;16.77;;;9.80;;
74624;SDS011;63131;52.298;8.056;2023-08-12T03:19:20;16.50;;;9.63;;
74624;SDS011;63131;52.298;8.056;2023-08-12T03:21:45;15.73;;;9.03;;
74624;SDS011;63131;52.298;8.056;2023-08-12T03:24:16;16.60;;;9.50;;
74624;SDS011;63131;52.298;8.056;2023-08-12T03:26:41;16.33;;;9.05;;
74624;SDS011;63131;52.298;8.056;2023-08-12T03:29:06;16.37;;;9.37;;
74624;SDS011;63131;52.298;8.056;2023-08-12T03:31:31;16.50;;;8.80;;
74624;SDS011;63131;52.298;8.056;2023-08-12T03:33:56;17.33;;;9.37;;
74624;SDS011;63131;52.298;8.056;2023-08-12T03:36:21;14.43;;;9.50;;
74624;SDS011;63131;52.298;8.056;2023-08-12T03:38:47;15.90;;;9.50;;
74624;SDS011;63131;52.298;8.056;2023-08-12T03:41:12;17.30;;;10.43;;
74624;SDS011;63131;52.298;8.056;2023-08-12T03:43:37;16.65;;;10.43;;
74624;SDS011;63131;52.298;8.056;2023-08-12T03:46:03;18.63;;;10.50;;
74624;SDS011;63131;52.298;8.056;2023-08-12T03:48:28;17.53;;;9.97;;
74624;SDS011;63131;52.298;8.056;2023-08-12T03:50:53;19.27;;;9.67;;
74624;SDS011;63131;52.298;8.056;2023-08-12T03:53:18;18.27;;;10.97;;
74624;SDS011;63131;52.298;8.056;2023-08-12T03:55:43;18.60;;;9.97;;
74624;SDS011;63131;52.298;8.056;2023-08-12T03:58:09;16.67;;;11.15;;
74624;SDS011;63131;52.298;8.056;2023-08-12T04:00:34;16.13;;;9.20;;
74624;SDS011;63131;52.298;8.056;2023-08-12T04:02:59;16.97;;;9.40;;
74624;SDS011;63131;52.298;8.056;2023-08-12T04:05:24;18.40;;;10.93;;
74624;SDS011;63131;52.298;8.056;2023-08-12T04:07:49;16.80;;;9.83;;
74624;SDS011;63131;52.298;8.056;2023-08-12T04:10:15;19.00;;;11.07;;
74624;SDS011;63131;52.298;8.056;2023-08-12T04:12:40;17.13;;;11.57;;
74624;SDS011;63131;52.298;8.056;2023-08-12T04:15:07;16.60;;;9.80;;
74624;SDS011;63131;52.298;8.056;2023-08-12T04:17:32;16.50;;;8.45;;
74624;SDS011;63131;52.298;8.056;2023-08-12T04:19:58;18.10;;;10.55;;
74624;SDS011;63131;52.298;8.056;2023-08-12T04:22:23;13.77;;;9.20;;
74624;SDS011;63131;52.298;8.056;2023-08-12T04:24:48;16.07;;;9.53;;
74624;SDS011;63131;52.298;8.056;2023-08-12T04:27:13;13.52;;;8.77;;
74624;SDS011;63131;52.298;8.056;2023-08-12T04:29:39;14.63;;;9.05;;
74624;SDS011;63131;52.298;8.056;2023-08-12T04:32:04;15.03;;;9.40;;
74624;SDS011;63131;52.298;8.056;2023-08-12T04:34:29;15.73;;;9.38;;
74624;SDS011;63131;52.298;8.056;2023-08-12T04:36:54;15.67;;;8.17;;
74624;SDS011;63131;52.298;8.056;2023-08-12T04:39:20;17.27;;;9.73;;
74624;SDS011;63131;52.298;8.056;2023-08-12T04:41:45;17.20;;;8.83;;
74624;SDS011;63131;52.298;8.056;2023-08-12T04:44:10;15.83;;;9.30;;
74624;SDS011;63131;52.298;8.056;2023-08-12T04:46:35;15.20;;;8.73;;
74624;SDS011;63131;52.298;8.056;2023-08-12T04:49:00;16.23;;;9.83;;
74624;SDS011;63131;52.298;8.056;2023-08-12T04:51:26;16.50;;;9.40;;
74624;SDS011;63131;52.298;8.056;2023-08-12T04:53:51;16.05;;;10.60;;
74624;SDS011;63131;52.298;8.056;2023-08-12T04:56:17;13.90;;;8.63;;
74624;SDS011;63131;52.298;8.056;2023-08-12T04:58:42;17.38;;;9.73;;
74624;SDS011;63131;52.298;8.056;2023-08-12T05:01:07;17.53;;;9.37;;
74624;SDS011;63131;52.298;8.056;2023-08-12T05:03:33;15.88;;;10.05;;
74624;SDS011;63131;52.298;8.056;2023-08-12T05:05:58;15.73;;;9.17;;
74624;SDS011;63131;52.298;8.056;2023-08-12T05:08:23;15.93;;;8.57;;
74624;SDS011;63131;52.298;8.056;2023-08-12T05:10:48;14.47;;;8.33;;
74624;SDS011;63131;52.298;8.056;2023-08-12T05:13:14;13.95;;;8.75;;
74624;SDS011;63131;52.298;8.056;2023-08-12T05:15:39;15.63;;;8.88;;
74624;SDS011;63131;52.298;8.056;2023-08-12T05:18:05;14.93;;;8.53;;
74624;SDS011;63131;52.298;8.056;2023-08-12T05:20:30;17.35;;;9.48;;
74624;SDS011;63131;52.298;8.056;2023-08-12T05:22:55;18.67;;;9.90;;
74624;SDS011;63131;52.298;8.056;2023-08-12T05:25:20;18.07;;;9.73;;
74624;SDS011;63131;52.298;8.056;2023-08-12T05:27:46;15.50;;;9.97;;
74624;SDS011;63131;52.298;8.056;2023-08-12T05:30:11;17.73;;;11.00;;
74624;SDS011;63131;52.298;8.056;2023-08-12T05:32:36;17.08;;;10.95;;
74624;SDS011;63131;52.298;8.056;2023-08-12T05:35:02;18.57;;;11.37;;
74624;SDS011;63131;52.298;8.056;2023-08-12T05:37:27;18.27;;;9.67;;
74624;SDS011;63131;52.298;8.056;2023-08-12T05:39:52;19.77;;;11.47;;
74624;SDS011;63131;52.298;8.056;2023-08-12T05:42:17;19.83;;;11.50;;
74624;SDS011;63131;52.298;8.056;2023-08-12T05:44:42;17.40;;;9.90;;
74624;SDS011;63131;52.298;8.056;2023-08-12T05:47:08;17.25;;;10.27;;
74624;SDS011;63131;52.298;8.056;2023-08-12T05:49:33;17.58;;;11.55;;
74624;SDS011;63131;52.298;8.056;2023-08-12T05:51:58;18.70;;;11.33;;
74624;SDS011;63131;52.298;8.056;2023-08-12T05:54:23;18.23;;;9.67;;
74624;SDS011;63131;52.298;8.056;2023-08-12T05:56:48;19.93;;;11.63;;
74624;SDS011;63131;52.298;8.056;2023-08-12T05:59:14;20.57;;;12.37;;
74624;SDS011;63131;52.298;8.056;2023-08-12T06:01:39;19.97;;;11.83;;
74624;SDS011;63131;52.298;8.056;2023-08-12T06:04:04;19.77;;;12.17;;
74624;SDS011;63131;52.298;8.056;2023-08-12T06:06:29;23.50;;;13.13;;
74624;SDS011;63131;52.298;8.056;2023-08-12T06:08:55;22.37;;;13.07;;
74624;SDS011;63131;52.298;8.056;2023-08-12T06:11:20;18.73;;;12.37;;
74624;SDS011;63131;52.298;8.056;2023-08-12T06:13:45;20.03;;;12.43;;
74624;SDS011;63131;52.298;8.056;2023-08-12T06:16:10;22.83;;;13.70;;
74624;SDS011;63131;52.298;8.056;2023-08-12T06:18:35;19.87;;;13.90;;
74624;SDS011;63131;52.298;8.056;2023-08-12T06:21:00;21.80;;;12.33;;
74624;SDS011;63131;52.298;8.056;2023-08-12T06:23:26;20.97;;;12.67;;
74624;SDS011;63131;52.298;8.056;2023-08-12T06:25:51;19.13;;;12.40;;
74624;SDS011;63131;52.298;8.056;2023-08-12T06:28:16;19.27;;;12.07;;
74624;SDS011;63131;52.298;8.056;2023-08-12T06:30:44;18.70;;;12.50;;
74624;SDS011;63131;52.298;8.056;2023-08-12T06:33:09;19.35;;;11.90;;
74624;SDS011;63131;52.298;8.056;2023-08-12T06:35:34;21.67;;;12.93;;
74624;SDS011;63131;52.298;8.056;2023-08-12T06:37:59;20.13;;;12.23;;
74624;SDS011;63131;52.298;8.056;2023-08-12T06:40:25;17.33;;;11.17;;
74624;SDS011;63131;52.298;8.056;2023-08-12T06:42:50;16.23;;;10.23;;
74624;SDS011;63131;52.298;8.056;2023-08-12T06:45:15;20.70;;;11.13;;
74624;SDS011;63131;52.298;8.056;2023-08-12T06:47:40;19.07;;;11.87;;
74624;SDS011;63131;52.298;8.056;2023-08-12T06:50:05;17.23;;;10.93;;
74624;SDS011;63131;52.298;8.056;2023-08-12T06:52:31;17.25;;;10.73;;
74624;SDS011;63131;52.298;8.056;2023-08-12T06:54:56;16.23;;;10.02;;
74624;SDS011;63131;52.298;8.056;2023-08-12T06:57:21;16.63;;;9.87;;
74624;SDS011;63131;52.298;8.056;2023-08-12T06:59:46;14.30;;;8.70;;
74624;SDS011;63131;52.298;8.056;2023-08-12T07:02:11;13.07;;;8.50;;
74624;SDS011;63131;52.298;8.056;2023-08-12T07:04:37;12.33;;;8.27;;
74624;SDS011;63131;52.298;8.056;2023-08-12T07:07:02;15.87;;;9.53;;
74624;SDS011;63131;52.298;8.056;2023-08-12T07:09:27;12.77;;;8.20;;
74624;SDS011;63131;52.298;8.056;2023-08-12T07:11:52;12.40;;;7.17;;
74624;SDS011;63131;52.298;8.056;2023-08-12T07:14:17;13.37;;;7.63;;
74624;SDS011;63131;52.298;8.056;2023-08-12T07:16:43;14.80;;;7.90;;
74624;SDS011;63131;52.298;8.056;2023-08-12T07:19:08;13.90;;;8.00;;
74624;SDS011;63131;52.298;8.056;2023-08-12T07:21:33;11.27;;;5.70;;
74624;SDS011;63131;52.298;8.056;2023-08-12T07:23:58;11.43;;;7.03;;
74624;SDS011;63131;52.298;8.056;2023-08-12T07:26:23;10.97;;;6.70;;
74624;SDS011;63131;52.298;8.056;2023-08-12T07:28:49;9.98;;;5.63;;
74624;SDS011;63131;52.298;8.056;2023-08-12T07:31:14;10.43;;;5.77;;
74624;SDS011;63131;52.298;8.056;2023-08-12T07:33:39;10.23;;;5.20;;
74624;SDS011;63131;52.298;8.056;2023-08-12T07:36:04;10.07;;;5.43;;
74624;SDS011;63131;52.298;8.056;2023-08-12T07:38:30;10.75;;;5.82;;
74624;SDS011;63131;52.298;8.056;2023-08-12T07:40:55;12.27;;;6.65;;
74624;SDS011;63131;52.298;8.056;2023-08-12T07:43:20;13.90;;;8.47;;
74624;SDS011;63131;52.298;8.056;2023-08-12T07:45:50;11.93;;;7.07;;
74624;SDS011;63131;52.298;8.056;2023-08-12T07:48:15;11.52;;;6.47;;
74624;SDS011;63131;52.298;8.056;2023-08-12T07:50:40;13.20;;;6.93;;
74624;SDS011;63131;52.298;8.056;2023-08-12T07:53:05;13.93;;;7.57;;
74624;SDS011;63131;52.298;8.056;2023-08-12T07:55:30;13.63;;;8.70;;
74624;SDS011;63131;52.298;8.056;2023-08-12T07:57:56;13.70;;;7.18;;
74624;SDS011;63131;52.298;8.056;2023-08-12T08:00:21;14.07;;;8.07;;
74624;SDS011;63131;52.298;8.056;2023-08-12T08:02:47;14.73;;;8.47;;
74624;SDS011;63131;52.298;8.056;2023-08-12T08:05:12;13.60;;;7.70;;
74624;SDS011;63131;52.298;8.056;2023-08-12T08:07:37;12.33;;;8.60;;
74624;SDS011;63131;52.298;8.056;2023-08-12T08:10:02;14.37;;;8.83;;
74624;SDS011;63131;52.298;8.056;2023-08-12T08:12:28;15.15;;;9.23;;
74624;SDS011;63131;52.298;8.056;2023-08-12T08:14:53;14.20;;;8.37;;
74624;SDS011;63131;52.298;8.056;2023-08-12T08:17:18;14.23;;;8.43;;
74624;SDS011;63131;52.298;8.056;2023-08-12T08:19:43;13.07;;;7.70;;
74624;SDS011;63131;52.298;8.056;2023-08-12T08:22:08;15.43;;;9.73;;
74624;SDS011;63131;52.298;8.056;2023-08-12T08:24:34;14.60;;;8.67;;
74624;SDS011;63131;52.298;8.056;2023-08-12T08:26:59;13.87;;;8.90;;
74624;SDS011;63131;52.298;8.056;2023-08-12T08:29:24;14.27;;;10.00;;
74624;SDS011;63131;52.298;8.056;2023-08-12T08:31:49;15.77;;;11.00;;
74624;SDS011;63131;52.298;8.056;2023-08-12T08:34:15;15.98;;;10.98;;
74624;SDS011;63131;52.298;8.056;2023-08-12T08:36:40;17.50;;;11.13;;
74624;SDS011;63131;52.298;8.056;2023-08-12T08:39:05;15.83;;;9.57;;
74624;SDS011;63131;52.298;8.056;2023-08-12T08:41:30;18.20;;;10.97;;
74624;SDS011;63131;52.298;8.056;2023-08-12T08:43:56;18.85;;;10.75;;
74624;SDS011;63131;52.298;8.056;2023-08-12T08:46:23;17.98;;;11.43;;
74624;SDS011;63131;52.298;8.056;2023-08-12T08:48:48;16.27;;;10.50;;
74624;SDS011;63131;52.298;8.056;2023-08-12T08:51:15;18.58;;;11.10;;
74624;SDS011;63131;52.298;8.056;2023-08-12T08:53:40;13.90;;;9.00;;
74624;SDS011;63131;52.298;8.056;2023-08-12T08:56:06;14.73;;;9.55;;
74624;SDS011;63131;52.298;8.056;2023-08-12T08:58:31;16.35;;;10.57;;
74624;SDS011;63131;52.298;8.056;2023-08-12T09:00:56;15.20;;;10.13;;
74624;SDS011;63131;52.298;8.056;2023-08-12T09:03:22;15.53;;;11.07;;
74624;SDS011;63131;52.298;8.056;2023-08-12T09:05:47;14.38;;;11.05;;
74624;SDS011;63131;52.298;8.056;2023-08-12T09:08:12;13.93;;;10.60;;
74624;SDS011;63131;52.298;8.056;2023-08-12T09:10:38;16.05;;;10.20;;
74624;SDS011;63131;52.298;8.056;2023-08-12T09:13:06;16.20;;;10.10;;
74624;SDS011;63131;52.298;8.056;2023-08-12T09:15:31;16.23;;;11.82;;
74624;SDS011;63131;52.298;8.056;2023-08-12T09:17:56;14.87;;;10.00;;
74624;SDS011;63131;52.298;8.056;2023-08-12T09:20:21;16.40;;;12.13;;
74624;SDS011;63131;52.298;8.056;2023-08-12T09:22:47;14.67;;;10.63;;
74624;SDS011;63131;52.298;8.056;2023-08-12T09:25:20;15.90;;;11.10;;
74624;SDS011;63131;52.298;8.056;2023-08-12T09:27:45;16.80;;;12.17;;
74624;SDS011;63131;52.298;8.056;2023-08-12T09:30:10;17.00;;;11.57;;
74624;SDS011;63131;52.298;8.056;2023-08-12T09:32:38;16.95;;;10.85;;
74624;SDS011;63131;52.298;8.056;2023-08-12T10:21:57;8.27;;;4.05;;
74624;SDS011;63131;52.298;8.056;2023-08-12T10:24:24;7.03;;;3.45;;
74624;SDS011;63131;52.298;8.056;2023-08-12T10:26:50;7.93;;;3.83;;
74624;SDS011;63131;52.298;8.056;2023-08-12T10:29:16;9.38;;;4.18;;
74624;SDS011;63131;52.298;8.056;2023-08-12T10:31:42;7.60;;;3.90;;
74624;SDS011;63131;52.298;8.056;2023-08-12T10:34:17;9.38;;;4.32;;
74624;SDS011;63131;52.298;8.056;2023-08-12T10:36:42;8.77;;;4.35;;
74624;SDS011;63131;52.298;8.056;2023-08-12T10:39:08;8.25;;;3.85;;
74624;SDS011;63131;52.298;8.056;2023-08-12T10:41:35;8.70;;;4.40;;
74624;SDS011;63131;52.298;8.056;2023-08-12T10:44:01;10.10;;;3.65;;
74624;SDS011;63131;52.298;8.056;2023-08-12T10:46:30;8.00;;;3.78;;
74624;SDS011;63131;52.298;8.056;2023-08-12T10:49:02;8.65;;;4.78;;
74624;SDS011;63131;52.298;8.056;2023-08-12T10:51:49;7.00;;;3.47;;
74624;SDS011;63131;52.298;8.056;2023-08-12T10:54:17;7.75;;;4.38;;
74624;SDS011;63131;52.298;8.056;2023-08-12T11:02:27;8.38;;;4.53;;
74624;SDS011;63131;52.298;8.056;2023-08-12T11:04:56;9.63;;;4.65;;
74624;SDS011;63131;52.298;8.056;2023-08-12T11:07:32;8.20;;;4.38;;
74624;SDS011;63131;52.298;8.056;2023-08-12T11:09:59;9.07;;;4.40;;
74624;SDS011;63131;52.298;8.056;2023-08-12T11:12:32;9.75;;;5.32;;
74624;SDS011;63131;52.298;8.056;2023-08-12T11:14:58;10.48;;;4.70;;
74624;SDS011;63131;52.298;8.056;2023-08-12T11:17:35;9.05;;;4.80;;
74624;SDS011;63131;52.298;8.056;2023-08-12T11:20:01;9.30;;;4.80;;
74624;SDS011;63131;52.298;8.056;2023-08-12T11:22:27;9.38;;;5.18;;
74624;SDS011;63131;52.298;8.056;2023-08-12T11:24:52;12.35;;;5.40;;
74624;SDS011;63131;52.298;8.056;2023-08-12T11:27:17;9.07;;;4.72;;
74624;SDS011;63131;52.298;8.056;2023-08-12T11:29:43;9.53;;;4.87;;
74624;SDS011;63131;52.298;8.056;2023-08-12T11:32:08;9.02;;;4.30;;
74624;SDS011;63131;52.298;8.056;2023-08-12T11:34:34;7.53;;;4.07;;
74624;SDS011;63131;52.298;8.056;2023-08-12T11:36:59;8.50;;;4.53;;
74624;SDS011;63131;52.298;8.056;2023-08-12T11:39:25;8.13;;;4.13;;
74624;SDS011;63131;52.298;8.056;2023-08-12T11:41:50;8.20;;;4.33;;
74624;SDS011;63131;52.298;8.056;2023-08-12T11:44:15;9.23;;;4.05;;
74624;SDS011;63131;52.298;8.056;2023-08-12T11:46:41;8.50;;;4.25;;
74624;SDS011;63131;52.298;8.056;2023-08-12T11:49:06;7.50;;;4.00;;
74624;SDS011;63131;52.298;8.056;2023-08-12T11:51:31;7.63;;;4.13;;
74624;SDS011;63131;52.298;8.056;2023-08-12T11:53:57;8.63;;;4.05;;
74624;SDS011;63131;52.298;8.056;2023-08-12T11:56:22;8.13;;;4.20;;
74624;SDS011;63131;52.298;8.056;2023-08-12T11:58:51;7.80;;;3.97;;
74624;SDS011;63131;52.298;8.056;2023-08-12T12:01:16;7.38;;;3.70;;
74624;SDS011;63131;52.298;8.056;2023-08-12T12:03:41;7.53;;;4.20;;
74624;SDS011;63131;52.298;8.056;2023-08-12T12:06:06;7.43;;;3.90;;
74624;SDS011;63131;52.298;8.056;2023-08-12T12:08:32;7.80;;;4.00;;
74624;SDS011;63131;52.298;8.056;2023-08-12T12:10:57;7.67;;;3.73;;
74624;SDS011;63131;52.298;8.056;2023-08-12T12:13:29;7.70;;;4.43;;
74624;SDS011;63131;52.298;8.056;2023-08-12T12:15:54;7.22;;;4.00;;
74624;SDS011;63131;52.298;8.056;2023-08-12T12:18:20;7.13;;;3.60;;
74624;SDS011;63131;52.298;8.056;2023-08-12T12:20:55;8.87;;;3.87;;
74624;SDS011;63131;52.298;8.056;2023-08-12T12:23:21;7.13;;;3.60;;
74624;SDS011;63131;52.298;8.056;2023-08-12T12:25:46;7.00;;;3.25;;
74624;SDS011;63131;52.298;8.056;2023-08-12T12:28:11;6.97;;;3.60;;
74624;SDS011;63131;52.298;8.056;2023-08-12T12:30:36;7.20;;;3.80;;
74624;SDS011;63131;52.298;8.056;2023-08-12T12:33:01;6.93;;;3.93;;
74624;SDS011;63131;52.298;8.056;2023-08-12T12:35:27;7.33;;;3.50;;
74624;SDS011;63131;52.298;8.056;2023-08-12T12:37:52;8.63;;;4.20;;
74624;SDS011;63131;52.298;8.056;2023-08-12T12:40:17;6.60;;;3.30;;
74624;SDS011;63131;52.298;8.056;2023-08-12T12:42:42;7.37;;;3.33;;
74624;SDS011;63131;52.298;8.056;2023-08-12T12:45:08;7.00;;;3.30;;
74624;SDS011;63131;52.298;8.056;2023-08-12T12:47:33;7.38;;;3.85;;
74624;SDS011;63131;52.298;8.056;2023-08-12T12:49:58;7.13;;;3.87;;
74624;SDS011;63131;52.298;8.056;2023-08-12T12:52:23;6.40;;;2.90;;
74624;SDS011;63131;52.298;8.056;2023-08-12T12:54:48;6.90;;;3.17;;
74624;SDS011;63131;52.298;8.056;2023-08-12T12:57:14;7.80;;;3.10;;
74624;SDS011;63131;52.298;8.056;2023-08-12T12:59:39;6.40;;;3.20;;
74624;SDS011;63131;52.298;8.056;2023-08-12T13:02:04;6.90;;;2.97;;
74624;SDS011;63131;52.298;8.056;2023-08-12T13:04:29;6.28;;;2.83;;
74624;SDS011;63131;52.298;8.056;2023-08-12T13:06:55;5.93;;;3.03;;
74624;SDS011;63131;52.298;8.056;2023-08-12T13:09:20;6.78;;;2.83;;
74624;SDS011;63131;52.298;8.056;2023-08-12T13:11:45;6.97;;;3.10;;
74624;SDS011;63131;52.298;8.056;2023-08-12T13:14:10;6.70;;;2.70;;
74624;SDS011;63131;52.298;8.056;2023-08-12T13:16:35;6.77;;;2.77;;
74624;SDS011;63131;52.298;8.056;2023-08-12T13:19:01;7.47;;;2.87;;
74624;SDS011;63131;52.298;8.056;2023-08-12T13:21:27;6.97;;;3.07;;
74624;SDS011;63131;52.298;8.056;2023-08-12T13:23:52;6.65;;;2.90;;
74624;SDS011;63131;52.298;8.056;2023-08-12T13:26:18;6.23;;;2.83;;
74624;SDS011;63131;52.298;8.056;2023-08-12T13:28:43;5.22;;;2.45;;
74624;SDS011;63131;52.298;8.056;2023-08-12T13:31:08;5.40;;;2.30;;
74624;SDS011;63131;52.298;8.056;2023-08-12T13:33:34;4.95;;;2.25;;
74624;SDS011;63131;52.298;8.056;2023-08-12T13:35:59;5.70;;;2.20;;
74624;SDS011;63131;52.298;8.056;2023-08-12T13:38:24;5.20;;;2.13;;
74624;SDS011;63131;52.298;8.056;2023-08-12T13:40:50;5.68;;;2.10;;
74624;SDS011;63131;52.298;8.056;2023-08-12T13:43:15;5.80;;;2.20;;
74624;SDS011;63131;52.298;8.056;2023-08-12T13:45:40;5.10;;;2.00;;
74624;SDS011;63131;52.298;8.056;2023-08-12T13:48:06;5.60;;;2.13;;
74624;SDS011;63131;52.298;8.056;2023-08-12T13:50:31;6.10;;;2.23;;
74624;SDS011;63131;52.298;8.056;2023-08-12T13:52:57;5.70;;;2.63;;
74624;SDS011;63131;52.298;8.056;2023-08-12T13:55:23;4.32;;;1.90;;
74624;SDS011;63131;52.298;8.056;2023-08-12T13:57:48;5.83;;;2.30;;
74624;SDS011;63131;52.298;8.056;2023-08-12T14:00:13;5.17;;;2.00;;
74624;SDS011;63131;52.298;8.056;2023-08-12T14:02:39;5.00;;;1.80;;
74624;SDS011;63131;52.298;8.056;2023-08-12T14:05:05;4.22;;;1.60;;
74624;SDS011;63131;52.298;8.056;2023-08-12T14:07:30;4.68;;;1.80;;
74624;SDS011;63131;52.298;8.056;2023-08-12T14:09:56;4.43;;;1.60;;
74624;SDS011;63131;52.298;8.056;2023-08-12T14:12:21;4.13;;;1.70;;
74624;SDS011;63131;52.298;8.056;2023-08-12T14:14:46;4.47;;;1.50;;
74624;SDS011;63131;52.298;8.056;2023-08-12T14:17:13;3.85;;;1.42;;
74624;SDS011;63131;52.298;8.056;2023-08-12T14:19:40;4.50;;;1.50;;
74624;SDS011;63131;52.298;8.056;2023-08-12T14:22:06;4.00;;;1.40;;
74624;SDS011;63131;52.298;8.056;2023-08-12T14:24:31;3.60;;;1.20;;
74624;SDS011;63131;52.298;8.056;2023-08-12T14:26:56;3.90;;;1.40;;
74624;SDS011;63131;52.298;8.056;2023-08-12T14:29:22;8.93;;;1.90;;
74624;SDS011;63131;52.298;8.056;2023-08-12T14:31:47;4.47;;;1.30;;
74624;SDS011;63131;52.298;8.056;2023-08-12T14:37:02;4.03;;;1.50;;
74624;SDS011;63131;52.298;8.056;2023-08-12T14:39:27;2.92;;;1.10;;
74624;SDS011;63131;52.298;8.056;2023-08-12T14:41:52;3.13;;;1.30;;
74624;SDS011;63131;52.298;8.056;2023-08-12T14:44:18;2.93;;;1.13;;
74624;SDS011;63131;52.298;8.056;2023-08-12T14:46:43;3.17;;;1.17;;
74624;SDS011;63131;52.298;8.056;2023-08-12T14:49:08;2.23;;;1.00;;
74624;SDS011;63131;52.298;8.056;2023-08-12T14:51:34;1.87;;;0.93;;
74624;SDS011;63131;52.298;8.056;2023-08-12T14:54:01;2.50;;;1.10;;
74624;SDS011;63131;52.298;8.056;2023-08-12T14:56:26;2.75;;;0.98;;
74624;SDS011;63131;52.298;8.056;2023-08-12T14:58:51;2.30;;;1.10;;
74624;SDS011;63131;52.298;8.056;2023-08-12T15:01:17;1.23;;;0.80;;
74624;SDS011;63131;52.298;8.056;2023-08-12T15:03:42;1.80;;;0.93;;
74624;SDS011;63131;52.298;8.056;2023-08-12T15:06:07;2.70;;;1.20;;
74624;SDS011;63131;52.298;8.056;2023-08-12T15:08:32;3.17;;;1.20;;
74624;SDS011;63131;52.298;8.056;2023-08-12T15:10:57;2.93;;;1.30;;
74624;SDS011;63131;52.298;8.056;2023-08-12T15:13:23;3.90;;;1.17;;
74624;SDS011;63131;52.298;8.056;2023-08-12T15:15:48;2.33;;;0.93;;
74624;SDS011;63131;52.298;8.056;2023-08-12T15:18:14;2.78;;;0.90;;
74624;SDS011;63131;52.298;8.056;2023-08-12T15:20:39;2.17;;;0.93;;
74624;SDS011;63131;52.298;8.056;2023-08-12T15:23:05;2.00;;;0.90;;
74624;SDS011;63131;52.298;8.056;2023-08-12T15:25:30;2.97;;;1.10;;